Terminal Aerodrome Forecast
Issued by NWS

Home | Current Version | Previous Version | Text Only | Print | Product List | Glossary On
Versions: 1 2 3 4 5 6 7 8 9 10 11 12 13 14 15 16 17 18 19 20 21 22 23 24 25 26 27 28 29 30 31 32 33 34 35 36 37 38 39 40 41 42 43 44
279
FTAK31 PANC 251739
TAFACD
TAF
PACD 251739Z 2518/2618 15013KT P6SM FEW250
      TEMPO 2518/2521 12015G22KT
     FM252100 19016G25KT P6SM FEW025 SCT250
     FM260600 21012KT P6SM FEW015 SCT100
     FM261200 21012G22KT P6SM SCT025 BKN050 OVC100=

USA.gov is the U.S. government's official web portal to all federal, state and local government web resources and services.